sensor_id;sensor_type;location;lat;lon;timestamp;P1;durP1;ratioP1;P2;durP2;ratioP2
46931;SDS011;32670;51.464;11.964;2022-12-08T00:01:22;13.73;;;12.43;;
46931;SDS011;32670;51.464;11.964;2022-12-08T00:03:50;13.70;;;12.50;;
46931;SDS011;32670;51.464;11.964;2022-12-08T00:06:32;13.70;;;12.40;;
46931;SDS011;32670;51.464;11.964;2022-12-08T00:14:46;13.07;;;11.87;;
46931;SDS011;32670;51.464;11.964;2022-12-08T00:17:14;12.57;;;11.57;;
46931;SDS011;32670;51.464;11.964;2022-12-08T00:19:40;12.73;;;11.53;;
46931;SDS011;32670;51.464;11.964;2022-12-08T00:22:07;13.73;;;12.33;;
46931;SDS011;32670;51.464;11.964;2022-12-08T00:24:35;12.03;;;10.93;;
46931;SDS011;32670;51.464;11.964;2022-12-08T00:27:05;12.27;;;10.90;;
46931;SDS011;32670;51.464;11.964;2022-12-08T00:29:31;12.03;;;10.93;;
46931;SDS011;32670;51.464;11.964;2022-12-08T00:31:57;11.83;;;10.50;;
46931;SDS011;32670;51.464;11.964;2022-12-08T00:34:22;11.83;;;10.73;;
46931;SDS011;32670;51.464;11.964;2022-12-08T00:36:48;12.00;;;10.90;;
46931;SDS011;32670;51.464;11.964;2022-12-08T00:39:14;11.80;;;10.70;;
46931;SDS011;32670;51.464;11.964;2022-12-08T00:41:41;10.67;;;9.77;;
46931;SDS011;32670;51.464;11.964;2022-12-08T00:44:25;11.00;;;9.90;;
46931;SDS011;32670;51.464;11.964;2022-12-08T00:46:51;10.83;;;9.87;;
46931;SDS011;32670;51.464;11.964;2022-12-08T00:49:17;10.37;;;9.37;;
46931;SDS011;32670;51.464;11.964;2022-12-08T00:51:42;9.90;;;9.03;;
46931;SDS011;32670;51.464;11.964;2022-12-08T00:54:09;10.60;;;9.67;;
46931;SDS011;32670;51.464;11.964;2022-12-08T00:56:35;10.63;;;9.67;;
46931;SDS011;32670;51.464;11.964;2022-12-08T00:59:02;9.73;;;8.93;;
46931;SDS011;32670;51.464;11.964;2022-12-08T01:01:28;10.50;;;9.50;;
46931;SDS011;32670;51.464;11.964;2022-12-08T01:03:54;10.00;;;9.10;;
46931;SDS011;32670;51.464;11.964;2022-12-08T01:06:19;9.97;;;9.07;;
46931;SDS011;32670;51.464;11.964;2022-12-08T01:08:45;10.23;;;9.33;;
46931;SDS011;32670;51.464;11.964;2022-12-08T01:11:11;9.70;;;8.90;;
46931;SDS011;32670;51.464;11.964;2022-12-08T01:13:38;9.27;;;8.47;;
46931;SDS011;32670;51.464;11.964;2022-12-08T01:16:05;9.73;;;8.83;;
46931;SDS011;32670;51.464;11.964;2022-12-08T01:18:31;9.23;;;8.43;;
46931;SDS011;32670;51.464;11.964;2022-12-08T01:21:01;9.63;;;8.73;;
46931;SDS011;32670;51.464;11.964;2022-12-08T01:23:30;9.57;;;8.77;;
46931;SDS011;32670;51.464;11.964;2022-12-08T01:26:00;9.77;;;8.87;;
46931;SDS011;32670;51.464;11.964;2022-12-08T01:28:30;9.30;;;8.50;;
46931;SDS011;32670;51.464;11.964;2022-12-08T01:30:56;9.37;;;8.57;;
46931;SDS011;32670;51.464;11.964;2022-12-08T01:33:22;8.13;;;7.43;;
46931;SDS011;32670;51.464;11.964;2022-12-08T01:35:48;8.30;;;7.60;;
46931;SDS011;32670;51.464;11.964;2022-12-08T01:38:13;8.97;;;7.77;;
46931;SDS011;32670;51.464;11.964;2022-12-08T01:40:39;8.63;;;7.83;;
46931;SDS011;32670;51.464;11.964;2022-12-08T01:43:04;8.60;;;7.80;;
46931;SDS011;32670;51.464;11.964;2022-12-08T01:45:30;8.43;;;7.67;;
46931;SDS011;32670;51.464;11.964;2022-12-08T01:48:01;8.10;;;7.50;;
46931;SDS011;32670;51.464;11.964;2022-12-08T01:50:31;8.50;;;7.80;;
46931;SDS011;32670;51.464;11.964;2022-12-08T01:53:01;8.30;;;7.57;;
46931;SDS011;32670;51.464;11.964;2022-12-08T01:58:12;7.77;;;7.13;;
46931;SDS011;32670;51.464;11.964;2022-12-08T02:00:45;7.50;;;6.80;;
46931;SDS011;32670;51.464;11.964;2022-12-08T02:03:15;7.57;;;6.87;;
46931;SDS011;32670;51.464;11.964;2022-12-08T02:05:47;7.80;;;7.10;;
46931;SDS011;32670;51.464;11.964;2022-12-08T02:08:12;7.60;;;7.00;;
46931;SDS011;32670;51.464;11.964;2022-12-08T02:10:39;7.27;;;6.67;;
46931;SDS011;32670;51.464;11.964;2022-12-08T02:13:07;7.33;;;6.67;;
46931;SDS011;32670;51.464;11.964;2022-12-08T02:15:37;6.93;;;6.33;;
46931;SDS011;32670;51.464;11.964;2022-12-08T02:21:05;7.07;;;6.50;;
46931;SDS011;32670;51.464;11.964;2022-12-08T02:23:40;6.87;;;6.37;;
46931;SDS011;32670;51.464;11.964;2022-12-08T02:26:41;7.17;;;6.57;;
46931;SDS011;32670;51.464;11.964;2022-12-08T02:35:08;6.17;;;5.67;;
46931;SDS011;32670;51.464;11.964;2022-12-08T02:37:56;6.60;;;6.00;;
46931;SDS011;32670;51.464;11.964;2022-12-08T02:40:28;6.77;;;6.17;;
46931;SDS011;32670;51.464;11.964;2022-12-08T02:43:01;6.40;;;5.83;;
46931;SDS011;32670;51.464;11.964;2022-12-08T02:45:44;5.60;;;5.20;;
46931;SDS011;32670;51.464;11.964;2022-12-08T02:48:19;6.40;;;5.90;;
46931;SDS011;32670;51.464;11.964;2022-12-08T02:50:45;6.00;;;5.50;;
46931;SDS011;32670;51.464;11.964;2022-12-08T02:53:10;6.30;;;5.73;;
46931;SDS011;32670;51.464;11.964;2022-12-08T02:55:39;6.20;;;5.70;;
46931;SDS011;32670;51.464;11.964;2022-12-08T02:58:31;5.83;;;5.33;;
46931;SDS011;32670;51.464;11.964;2022-12-08T03:01:15;5.37;;;4.97;;
46931;SDS011;32670;51.464;11.964;2022-12-08T03:04:05;5.50;;;5.10;;
46931;SDS011;32670;51.464;11.964;2022-12-08T03:06:40;5.60;;;5.20;;
46931;SDS011;32670;51.464;11.964;2022-12-08T03:11:55;5.23;;;4.83;;
46931;SDS011;32670;51.464;11.964;2022-12-08T03:14:30;5.80;;;5.30;;
46931;SDS011;32670;51.464;11.964;2022-12-08T03:16:57;5.60;;;5.10;;
46931;SDS011;32670;51.464;11.964;2022-12-08T03:19:25;5.43;;;4.93;;
46931;SDS011;32670;51.464;11.964;2022-12-08T03:21:55;5.27;;;4.80;;
46931;SDS011;32670;51.464;11.964;2022-12-08T03:24:27;5.27;;;4.77;;
46931;SDS011;32670;51.464;11.964;2022-12-08T03:27:01;4.80;;;4.40;;
46931;SDS011;32670;51.464;11.964;2022-12-08T03:29:30;5.27;;;4.80;;
46931;SDS011;32670;51.464;11.964;2022-12-08T03:31:57;5.20;;;4.80;;
46931;SDS011;32670;51.464;11.964;2022-12-08T03:34:34;5.53;;;5.00;;
46931;SDS011;32670;51.464;11.964;2022-12-08T03:37:02;5.07;;;4.67;;
46931;SDS011;32670;51.464;11.964;2022-12-08T03:39:28;5.13;;;4.73;;
46931;SDS011;32670;51.464;11.964;2022-12-08T03:41:53;4.53;;;4.23;;
46931;SDS011;32670;51.464;11.964;2022-12-08T03:44:19;4.90;;;4.50;;
46931;SDS011;32670;51.464;11.964;2022-12-08T03:46:44;4.83;;;4.43;;
46931;SDS011;32670;51.464;11.964;2022-12-08T03:49:10;4.37;;;4.07;;
46931;SDS011;32670;51.464;11.964;2022-12-08T03:51:35;4.20;;;3.90;;
46931;SDS011;32670;51.464;11.964;2022-12-08T03:54:01;4.30;;;4.00;;
46931;SDS011;32670;51.464;11.964;2022-12-08T03:56:29;4.67;;;4.27;;
46931;SDS011;32670;51.464;11.964;2022-12-08T03:59:02;4.33;;;3.93;;
46931;SDS011;32670;51.464;11.964;2022-12-08T04:01:28;4.33;;;3.93;;
46931;SDS011;32670;51.464;11.964;2022-12-08T04:03:53;4.20;;;3.90;;
46931;SDS011;32670;51.464;11.964;2022-12-08T04:06:19;4.00;;;3.70;;
46931;SDS011;32670;51.464;11.964;2022-12-08T04:08:45;4.33;;;4.03;;
46931;SDS011;32670;51.464;11.964;2022-12-08T04:11:11;4.00;;;3.70;;
46931;SDS011;32670;51.464;11.964;2022-12-08T04:13:37;3.97;;;3.67;;
46931;SDS011;32670;51.464;11.964;2022-12-08T04:16:05;4.43;;;4.13;;
46931;SDS011;32670;51.464;11.964;2022-12-08T04:18:31;4.10;;;3.80;;
46931;SDS011;32670;51.464;11.964;2022-12-08T04:20:57;3.77;;;3.47;;
46931;SDS011;32670;51.464;11.964;2022-12-08T04:23:23;3.87;;;3.57;;
46931;SDS011;32670;51.464;11.964;2022-12-08T04:25:49;3.83;;;3.53;;
46931;SDS011;32670;51.464;11.964;2022-12-08T04:28:15;3.90;;;3.60;;
46931;SDS011;32670;51.464;11.964;2022-12-08T04:30:41;3.83;;;3.53;;
46931;SDS011;32670;51.464;11.964;2022-12-08T04:33:06;3.93;;;3.63;;
46931;SDS011;32670;51.464;11.964;2022-12-08T04:35:32;3.30;;;3.00;;
46931;SDS011;32670;51.464;11.964;2022-12-08T04:37:57;3.80;;;3.50;;
46931;SDS011;32670;51.464;11.964;2022-12-08T04:40:23;3.80;;;3.50;;
46931;SDS011;32670;51.464;11.964;2022-12-08T04:42:49;3.50;;;3.23;;
46931;SDS011;32670;51.464;11.964;2022-12-08T04:45:14;3.60;;;3.30;;
46931;SDS011;32670;51.464;11.964;2022-12-08T04:47:40;3.63;;;3.33;;
46931;SDS011;32670;51.464;11.964;2022-12-08T04:50:06;3.47;;;3.17;;
46931;SDS011;32670;51.464;11.964;2022-12-08T04:52:32;3.77;;;3.47;;
46931;SDS011;32670;51.464;11.964;2022-12-08T04:54:58;3.33;;;3.13;;
46931;SDS011;32670;51.464;11.964;2022-12-08T04:57:23;3.00;;;2.80;;
46931;SDS011;32670;51.464;11.964;2022-12-08T04:59:49;3.13;;;2.90;;
46931;SDS011;32670;51.464;11.964;2022-12-08T05:02:14;3.73;;;3.10;;
46931;SDS011;32670;51.464;11.964;2022-12-08T05:04:40;3.27;;;3.07;;
46931;SDS011;32670;51.464;11.964;2022-12-08T05:07:05;3.00;;;2.80;;
46931;SDS011;32670;51.464;11.964;2022-12-08T05:09:31;3.17;;;2.97;;
46931;SDS011;32670;51.464;11.964;2022-12-08T05:11:56;3.00;;;2.80;;
46931;SDS011;32670;51.464;11.964;2022-12-08T05:14:22;2.97;;;2.77;;
46931;SDS011;32670;51.464;11.964;2022-12-08T05:16:47;3.10;;;2.90;;
46931;SDS011;32670;51.464;11.964;2022-12-08T05:19:13;3.10;;;2.90;;
46931;SDS011;32670;51.464;11.964;2022-12-08T05:21:39;3.13;;;2.93;;
46931;SDS011;32670;51.464;11.964;2022-12-08T05:24:05;2.80;;;2.60;;
46931;SDS011;32670;51.464;11.964;2022-12-08T05:26:31;2.83;;;2.63;;
46931;SDS011;32670;51.464;11.964;2022-12-08T05:28:56;3.00;;;2.80;;
46931;SDS011;32670;51.464;11.964;2022-12-08T05:31:22;2.80;;;2.60;;
46931;SDS011;32670;51.464;11.964;2022-12-08T05:33:48;2.83;;;2.63;;
46931;SDS011;32670;51.464;11.964;2022-12-08T05:36:15;2.63;;;2.43;;
46931;SDS011;32670;51.464;11.964;2022-12-08T05:38:41;2.60;;;2.40;;
46931;SDS011;32670;51.464;11.964;2022-12-08T05:41:07;2.90;;;2.70;;
46931;SDS011;32670;51.464;11.964;2022-12-08T05:43:34;2.73;;;2.53;;
46931;SDS011;32670;51.464;11.964;2022-12-08T05:45:59;2.70;;;2.50;;
46931;SDS011;32670;51.464;11.964;2022-12-08T05:48:25;2.67;;;2.47;;
46931;SDS011;32670;51.464;11.964;2022-12-08T05:50:51;2.80;;;2.60;;
46931;SDS011;32670;51.464;11.964;2022-12-08T05:53:17;2.70;;;2.50;;
46931;SDS011;32670;51.464;11.964;2022-12-08T05:55:44;2.70;;;2.50;;
46931;SDS011;32670;51.464;11.964;2022-12-08T05:58:11;2.60;;;2.40;;
46931;SDS011;32670;51.464;11.964;2022-12-08T06:00:40;2.37;;;2.27;;
46931;SDS011;32670;51.464;11.964;2022-12-08T06:03:06;2.60;;;2.40;;
46931;SDS011;32670;51.464;11.964;2022-12-08T06:05:32;2.57;;;2.37;;
46931;SDS011;32670;51.464;11.964;2022-12-08T06:07:58;2.43;;;2.23;;
46931;SDS011;32670;51.464;11.964;2022-12-08T06:10:24;2.50;;;2.30;;
46931;SDS011;32670;51.464;11.964;2022-12-08T06:12:49;2.10;;;2.00;;
46931;SDS011;32670;51.464;11.964;2022-12-08T06:15:15;2.17;;;2.07;;
46931;SDS011;32670;51.464;11.964;2022-12-08T06:17:40;2.30;;;2.10;;
46931;SDS011;32670;51.464;11.964;2022-12-08T06:20:06;2.30;;;2.20;;
46931;SDS011;32670;51.464;11.964;2022-12-08T06:22:32;2.10;;;2.00;;
46931;SDS011;32670;51.464;11.964;2022-12-08T06:24:58;2.27;;;2.10;;
46931;SDS011;32670;51.464;11.964;2022-12-08T06:27:23;2.27;;;2.17;;
46931;SDS011;32670;51.464;11.964;2022-12-08T06:29:49;2.33;;;2.20;;
46931;SDS011;32670;51.464;11.964;2022-12-08T06:32:14;2.00;;;1.90;;
46931;SDS011;32670;51.464;11.964;2022-12-08T06:34:40;2.10;;;2.00;;
46931;SDS011;32670;51.464;11.964;2022-12-08T06:37:05;1.97;;;1.87;;
46931;SDS011;32670;51.464;11.964;2022-12-08T06:39:31;2.27;;;2.07;;
46931;SDS011;32670;51.464;11.964;2022-12-08T06:41:56;2.07;;;1.97;;
46931;SDS011;32670;51.464;11.964;2022-12-08T06:44:40;2.10;;;2.00;;
46931;SDS011;32670;51.464;11.964;2022-12-08T06:47:06;2.03;;;1.93;;
46931;SDS011;32670;51.464;11.964;2022-12-08T06:49:31;4.03;;;1.93;;
46931;SDS011;32670;51.464;11.964;2022-12-08T06:51:57;3.47;;;2.13;;
46931;SDS011;32670;51.464;11.964;2022-12-08T06:54:22;2.30;;;2.10;;
46931;SDS011;32670;51.464;11.964;2022-12-08T06:56:48;4.33;;;3.93;;
46931;SDS011;32670;51.464;11.964;2022-12-08T06:59:13;5.00;;;4.10;;
46931;SDS011;32670;51.464;11.964;2022-12-08T07:01:39;5.00;;;4.50;;
46931;SDS011;32670;51.464;11.964;2022-12-08T07:04:04;3.40;;;3.20;;
46931;SDS011;32670;51.464;11.964;2022-12-08T07:06:30;2.60;;;2.40;;
46931;SDS011;32670;51.464;11.964;2022-12-08T07:08:56;6.33;;;3.50;;
46931;SDS011;32670;51.464;11.964;2022-12-08T07:11:21;9.50;;;4.10;;
46931;SDS011;32670;51.464;11.964;2022-12-08T07:13:47;13.40;;;4.70;;
46931;SDS011;32670;51.464;11.964;2022-12-08T07:16:12;12.30;;;5.40;;
46931;SDS011;32670;51.464;11.964;2022-12-08T07:18:38;15.37;;;5.77;;
46931;SDS011;32670;51.464;11.964;2022-12-08T07:21:04;13.50;;;6.27;;
46931;SDS011;32670;51.464;11.964;2022-12-08T07:23:31;18.30;;;6.83;;
46931;SDS011;32670;51.464;11.964;2022-12-08T07:26:04;15.57;;;6.00;;
46931;SDS011;32670;51.464;11.964;2022-12-08T07:28:32;15.43;;;6.53;;
46931;SDS011;32670;51.464;11.964;2022-12-08T07:30:58;61.30;;;36.17;;
46931;SDS011;32670;51.464;11.964;2022-12-08T07:33:24;53.03;;;37.43;;
46931;SDS011;32670;51.464;11.964;2022-12-08T07:35:57;41.13;;;24.87;;
46931;SDS011;32670;51.464;11.964;2022-12-08T07:38:27;38.10;;;22.97;;
46931;SDS011;32670;51.464;11.964;2022-12-08T07:40:54;34.77;;;21.47;;
46931;SDS011;32670;51.464;11.964;2022-12-08T07:43:20;34.87;;;21.43;;
46931;SDS011;32670;51.464;11.964;2022-12-08T07:45:46;35.33;;;21.07;;
46931;SDS011;32670;51.464;11.964;2022-12-08T07:48:11;33.73;;;20.80;;
46931;SDS011;32670;51.464;11.964;2022-12-08T07:50:37;35.13;;;21.37;;
46931;SDS011;32670;51.464;11.964;2022-12-08T07:53:03;32.07;;;19.97;;
46931;SDS011;32670;51.464;11.964;2022-12-08T07:55:29;29.93;;;19.63;;
46931;SDS011;32670;51.464;11.964;2022-12-08T07:57:54;23.73;;;15.83;;
46931;SDS011;32670;51.464;11.964;2022-12-08T08:00:20;22.87;;;15.53;;
46931;SDS011;32670;51.464;11.964;2022-12-08T08:02:45;22.83;;;15.87;;
46931;SDS011;32670;51.464;11.964;2022-12-08T08:05:11;22.27;;;15.53;;
46931;SDS011;32670;51.464;11.964;2022-12-08T08:07:38;20.97;;;15.80;;
46931;SDS011;32670;51.464;11.964;2022-12-08T08:10:06;27.13;;;15.57;;
46931;SDS011;32670;51.464;11.964;2022-12-08T08:12:32;25.73;;;16.33;;
46931;SDS011;32670;51.464;11.964;2022-12-08T08:14:58;22.23;;;15.27;;
46931;SDS011;32670;51.464;11.964;2022-12-08T08:17:25;19.80;;;15.53;;
46931;SDS011;32670;51.464;11.964;2022-12-08T08:19:50;21.50;;;15.70;;
46931;SDS011;32670;51.464;11.964;2022-12-08T08:22:16;21.37;;;15.70;;
46931;SDS011;32670;51.464;11.964;2022-12-08T08:24:41;14.87;;;11.50;;
46931;SDS011;32670;51.464;11.964;2022-12-08T08:27:07;18.73;;;13.67;;
46931;SDS011;32670;51.464;11.964;2022-12-08T08:29:32;17.23;;;13.60;;
46931;SDS011;32670;51.464;11.964;2022-12-08T08:31:58;16.90;;;13.30;;
46931;SDS011;32670;51.464;11.964;2022-12-08T08:34:23;17.57;;;13.80;;
46931;SDS011;32670;51.464;11.964;2022-12-08T08:36:49;15.97;;;14.07;;
46931;SDS011;32670;51.464;11.964;2022-12-08T08:39:14;19.17;;;14.80;;
46931;SDS011;32670;51.464;11.964;2022-12-08T08:41:40;16.77;;;14.10;;
46931;SDS011;32670;51.464;11.964;2022-12-08T08:44:06;18.00;;;13.67;;
46931;SDS011;32670;51.464;11.964;2022-12-08T08:46:31;18.30;;;13.97;;
46931;SDS011;32670;51.464;11.964;2022-12-08T08:48:57;17.17;;;14.50;;
46931;SDS011;32670;51.464;11.964;2022-12-08T08:51:22;17.83;;;15.00;;
46931;SDS011;32670;51.464;11.964;2022-12-08T08:53:48;18.00;;;14.60;;
46931;SDS011;32670;51.464;11.964;2022-12-08T08:56:15;18.13;;;14.53;;
46931;SDS011;32670;51.464;11.964;2022-12-08T08:58:45;17.77;;;15.13;;
46931;SDS011;32670;51.464;11.964;2022-12-08T09:01:18;18.77;;;15.60;;
46931;SDS011;32670;51.464;11.964;2022-12-08T09:03:47;17.17;;;14.93;;
46931;SDS011;32670;51.464;11.964;2022-12-08T09:06:13;18.13;;;14.93;;
46931;SDS011;32670;51.464;11.964;2022-12-08T09:08:39;20.03;;;15.40;;
46931;SDS011;32670;51.464;11.964;2022-12-08T09:11:05;18.03;;;15.27;;
46931;SDS011;32670;51.464;11.964;2022-12-08T09:13:31;17.93;;;15.67;;
46931;SDS011;32670;51.464;11.964;2022-12-08T09:15:56;17.87;;;15.80;;
46931;SDS011;32670;51.464;11.964;2022-12-08T09:18:22;18.93;;;16.57;;
46931;SDS011;32670;51.464;11.964;2022-12-08T09:20:47;18.33;;;16.30;;
46931;SDS011;32670;51.464;11.964;2022-12-08T09:23:13;20.53;;;15.93;;
46931;SDS011;32670;51.464;11.964;2022-12-08T09:25:38;17.90;;;15.77;;
46931;SDS011;32670;51.464;11.964;2022-12-08T09:28:07;17.63;;;15.83;;
46931;SDS011;32670;51.464;11.964;2022-12-08T09:30:32;23.37;;;16.50;;
46931;SDS011;32670;51.464;11.964;2022-12-08T09:32:58;18.37;;;15.43;;
46931;SDS011;32670;51.464;11.964;2022-12-08T09:35:23;21.00;;;18.00;;
46931;SDS011;32670;51.464;11.964;2022-12-08T09:37:49;20.53;;;17.70;;
46931;SDS011;32670;51.464;11.964;2022-12-08T09:40:15;20.03;;;17.47;;
46931;SDS011;32670;51.464;11.964;2022-12-08T09:42:49;20.90;;;17.53;;
46931;SDS011;32670;51.464;11.964;2022-12-08T09:45:15;19.03;;;16.93;;
46931;SDS011;32670;51.464;11.964;2022-12-08T09:47:44;19.20;;;17.17;;
46931;SDS011;32670;51.464;11.964;2022-12-08T09:50:54;19.17;;;16.73;;
46931;SDS011;32670;51.464;11.964;2022-12-08T09:53:11;20.03;;;17.93;;
46931;SDS011;32670;51.464;11.964;2022-12-08T09:58:26;21.63;;;17.80;;
46931;SDS011;32670;51.464;11.964;2022-12-08T10:00:59;24.47;;;19.10;;
46931;SDS011;32670;51.464;11.964;2022-12-08T10:03:27;21.37;;;17.67;;
46931;SDS011;32670;51.464;11.964;2022-12-08T10:06:18;22.43;;;18.03;;
46931;SDS011;32670;51.464;11.964;2022-12-08T10:08:47;20.17;;;17.93;;
46931;SDS011;32670;51.464;11.964;2022-12-08T10:11:27;20.57;;;18.37;;
46931;SDS011;32670;51.464;11.964;2022-12-08T10:14:11;21.70;;;17.80;;
46931;SDS011;32670;51.464;11.964;2022-12-08T10:16:50;21.90;;;18.27;;
46931;SDS011;32670;51.464;11.964;2022-12-08T10:19:22;20.97;;;18.70;;
46931;SDS011;32670;51.464;11.964;2022-12-08T10:21:50;21.17;;;18.93;;
46931;SDS011;32670;51.464;11.964;2022-12-08T10:26:56;22.80;;;18.73;;
46931;SDS011;32670;51.464;11.964;2022-12-08T10:29:22;20.43;;;17.60;;
46931;SDS011;32670;51.464;11.964;2022-12-08T10:31:47;20.70;;;18.50;;
46931;SDS011;32670;51.464;11.964;2022-12-08T10:34:14;21.77;;;18.87;;
46931;SDS011;32670;51.464;11.964;2022-12-08T10:36:54;20.77;;;18.53;;
46931;SDS011;32670;51.464;11.964;2022-12-08T10:39:28;21.03;;;18.93;;
46931;SDS011;32670;51.464;11.964;2022-12-08T10:41:58;21.47;;;18.40;;
46931;SDS011;32670;51.464;11.964;2022-12-08T10:44:54;21.63;;;18.53;;
46931;SDS011;32670;51.464;11.964;2022-12-08T10:47:25;21.17;;;18.87;;
46931;SDS011;32670;51.464;11.964;2022-12-08T10:52:42;22.23;;;19.93;;
46931;SDS011;32670;51.464;11.964;2022-12-08T10:55:12;22.83;;;20.27;;
46931;SDS011;32670;51.464;11.964;2022-12-08T10:57:40;23.90;;;21.03;;
46931;SDS011;32670;51.464;11.964;2022-12-08T11:00:06;25.23;;;22.37;;
46931;SDS011;32670;51.464;11.964;2022-12-08T11:02:35;24.97;;;22.00;;
46931;SDS011;32670;51.464;11.964;2022-12-08T11:05:13;24.43;;;21.73;;
46931;SDS011;32670;51.464;11.964;2022-12-08T11:07:45;23.57;;;21.17;;
46931;SDS011;32670;51.464;11.964;2022-12-08T11:10:16;24.13;;;21.70;;
46931;SDS011;32670;51.464;11.964;2022-12-08T11:12:43;26.13;;;23.43;;
46931;SDS011;32670;51.464;11.964;2022-12-08T11:15:13;25.37;;;22.70;;
46931;SDS011;32670;51.464;11.964;2022-12-08T11:17:42;24.53;;;21.93;;
46931;SDS011;32670;51.464;11.964;2022-12-08T11:20:39;25.23;;;22.60;;
46931;SDS011;32670;51.464;11.964;2022-12-08T11:23:20;26.07;;;23.33;;
46931;SDS011;32670;51.464;11.964;2022-12-08T11:25:50;27.43;;;24.67;;
46931;SDS011;32670;51.464;11.964;2022-12-08T11:28:20;27.17;;;24.27;;
46931;SDS011;32670;51.464;11.964;2022-12-08T11:30:50;26.83;;;24.13;;
46931;SDS011;32670;51.464;11.964;2022-12-08T11:33:25;26.03;;;23.10;;
46931;SDS011;32670;51.464;11.964;2022-12-08T11:36:03;24.13;;;21.53;;
46931;SDS011;32670;51.464;11.964;2022-12-08T11:38:31;24.07;;;21.57;;
46931;SDS011;32670;51.464;11.964;2022-12-08T11:41:02;24.17;;;21.67;;
46931;SDS011;32670;51.464;11.964;2022-12-08T11:46:42;28.53;;;22.90;;
46931;SDS011;32670;51.464;11.964;2022-12-08T11:49:03;25.57;;;22.83;;
46931;SDS011;32670;51.464;11.964;2022-12-08T11:51:34;30.80;;;22.90;;
46931;SDS011;32670;51.464;11.964;2022-12-08T11:54:11;31.83;;;23.30;;
46931;SDS011;32670;51.464;11.964;2022-12-08T11:56:58;29.57;;;24.83;;
46931;SDS011;32670;51.464;11.964;2022-12-08T11:59:35;29.17;;;24.43;;
46931;SDS011;32670;51.464;11.964;2022-12-08T12:02:10;31.37;;;23.80;;
46931;SDS011;32670;51.464;11.964;2022-12-08T12:04:41;30.37;;;24.50;;
46931;SDS011;32670;51.464;11.964;2022-12-08T12:12:48;28.07;;;24.57;;
46931;SDS011;32670;51.464;11.964;2022-12-08T12:18:45;30.27;;;25.30;;
46931;SDS011;32670;51.464;11.964;2022-12-08T12:23:41;31.90;;;26.23;;
46931;SDS011;32670;51.464;11.964;2022-12-08T12:26:17;29.80;;;25.77;;
46931;SDS011;32670;51.464;11.964;2022-12-08T12:28:52;29.57;;;24.20;;
46931;SDS011;32670;51.464;11.964;2022-12-08T12:31:23;27.50;;;24.23;;
46931;SDS011;32670;51.464;11.964;2022-12-08T12:33:56;28.13;;;25.13;;
46931;SDS011;32670;51.464;11.964;2022-12-08T12:39:14;27.77;;;24.17;;
46931;SDS011;32670;51.464;11.964;2022-12-08T12:41:46;30.80;;;24.63;;
46931;SDS011;32670;51.464;11.964;2022-12-08T13:07:54;28.70;;;25.73;;
46931;SDS011;32670;51.464;11.964;2022-12-08T13:18:04;29.13;;;26.03;;
46931;SDS011;32670;51.464;11.964;2022-12-08T13:20:45;31.13;;;25.97;;
46931;SDS011;32670;51.464;11.964;2022-12-08T13:23:28;27.40;;;24.67;;
46931;SDS011;32670;51.464;11.964;2022-12-08T13:26:20;29.00;;;25.90;;
46931;SDS011;32670;51.464;11.964;2022-12-08T13:31:41;27.23;;;24.47;;
46931;SDS011;32670;51.464;11.964;2022-12-08T13:36:58;29.17;;;26.17;;
46931;SDS011;32670;51.464;11.964;2022-12-08T13:39:45;28.70;;;25.83;;
46931;SDS011;32670;51.464;11.964;2022-12-08T13:42:18;27.83;;;24.97;;
46931;SDS011;32670;51.464;11.964;2022-12-08T13:47:40;27.10;;;24.30;;
46931;SDS011;32670;51.464;11.964;2022-12-08T13:50:21;28.10;;;25.37;;
46931;SDS011;32670;51.464;11.964;2022-12-08T13:55:57;28.40;;;25.40;;
46931;SDS011;32670;51.464;11.964;2022-12-08T13:58:25;27.10;;;24.40;;
46931;SDS011;32670;51.464;11.964;2022-12-08T14:03:46;27.97;;;25.07;;
46931;SDS011;32670;51.464;11.964;2022-12-08T14:06:23;28.27;;;25.27;;
46931;SDS011;32670;51.464;11.964;2022-12-08T14:08:56;28.60;;;25.67;;
46931;SDS011;32670;51.464;11.964;2022-12-08T14:11:45;28.93;;;26.00;;
46931;SDS011;32670;51.464;11.964;2022-12-08T14:14:20;29.30;;;26.30;;
46931;SDS011;32670;51.464;11.964;2022-12-08T14:16:51;29.53;;;26.63;;
46931;SDS011;32670;51.464;11.964;2022-12-08T14:19:22;28.93;;;26.00;;
46931;SDS011;32670;51.464;11.964;2022-12-08T14:21:54;29.27;;;26.30;;
46931;SDS011;32670;51.464;11.964;2022-12-08T14:24:22;28.70;;;25.80;;
46931;SDS011;32670;51.464;11.964;2022-12-08T14:26:50;28.30;;;25.57;;
46931;SDS011;32670;51.464;11.964;2022-12-08T14:29:25;28.77;;;26.00;;
46931;SDS011;32670;51.464;11.964;2022-12-08T14:32:28;28.87;;;25.77;;
46931;SDS011;32670;51.464;11.964;2022-12-08T14:35:26;26.87;;;24.27;;
46931;SDS011;32670;51.464;11.964;2022-12-08T14:37:55;28.30;;;25.43;;
46931;SDS011;32670;51.464;11.964;2022-12-08T14:40:32;29.10;;;26.27;;
46931;SDS011;32670;51.464;11.964;2022-12-08T14:48:21;28.67;;;25.77;;
46931;SDS011;32670;51.464;11.964;2022-12-08T14:56:07;27.70;;;25.10;;
46931;SDS011;32670;51.464;11.964;2022-12-08T14:58:41;28.40;;;25.60;;
46931;SDS011;32670;51.464;11.964;2022-12-08T15:01:06;27.83;;;25.10;;
46931;SDS011;32670;51.464;11.964;2022-12-08T15:03:36;27.47;;;24.87;;
46931;SDS011;32670;51.464;11.964;2022-12-08T15:06:05;28.10;;;25.37;;
46931;SDS011;32670;51.464;11.964;2022-12-08T15:08:31;28.27;;;25.50;;
46931;SDS011;32670;51.464;11.964;2022-12-08T15:11:11;27.93;;;25.13;;
46931;SDS011;32670;51.464;11.964;2022-12-08T15:13:57;27.37;;;24.70;;
46931;SDS011;32670;51.464;11.964;2022-12-08T15:16:28;27.07;;;24.47;;
46931;SDS011;32670;51.464;11.964;2022-12-08T15:19:12;28.23;;;25.57;;
46931;SDS011;32670;51.464;11.964;2022-12-08T15:21:45;28.30;;;25.53;;
46931;SDS011;32670;51.464;11.964;2022-12-08T15:24:12;27.77;;;25.00;;
46931;SDS011;32670;51.464;11.964;2022-12-08T15:26:41;28.03;;;25.23;;
46931;SDS011;32670;51.464;11.964;2022-12-08T15:29:15;26.80;;;24.23;;
46931;SDS011;32670;51.464;11.964;2022-12-08T15:31:42;25.27;;;22.87;;
46931;SDS011;32670;51.464;11.964;2022-12-08T15:34:08;26.63;;;24.03;;
46931;SDS011;32670;51.464;11.964;2022-12-08T15:36:33;26.50;;;24.00;;
46931;SDS011;32670;51.464;11.964;2022-12-08T15:38:59;26.83;;;24.23;;
46931;SDS011;32670;51.464;11.964;2022-12-08T15:41:24;26.47;;;23.90;;
46931;SDS011;32670;51.464;11.964;2022-12-08T15:43:50;26.17;;;23.67;;
46931;SDS011;32670;51.464;11.964;2022-12-08T15:46:15;26.47;;;23.97;;
46931;SDS011;32670;51.464;11.964;2022-12-08T15:48:41;26.70;;;24.00;;
46931;SDS011;32670;51.464;11.964;2022-12-08T15:51:07;26.67;;;24.13;;
46931;SDS011;32670;51.464;11.964;2022-12-08T15:53:32;27.23;;;24.63;;
46931;SDS011;32670;51.464;11.964;2022-12-08T15:55:58;26.73;;;24.17;;
46931;SDS011;32670;51.464;11.964;2022-12-08T15:58:28;25.47;;;23.03;;
46931;SDS011;32670;51.464;11.964;2022-12-08T16:00:53;25.77;;;23.27;;
46931;SDS011;32670;51.464;11.964;2022-12-08T16:03:20;25.10;;;22.70;;
46931;SDS011;32670;51.464;11.964;2022-12-08T16:05:48;25.33;;;22.90;;
46931;SDS011;32670;51.464;11.964;2022-12-08T16:08:14;24.93;;;22.63;;
46931;SDS011;32670;51.464;11.964;2022-12-08T16:10:41;24.87;;;22.60;;
46931;SDS011;32670;51.464;11.964;2022-12-08T16:13:18;25.70;;;23.23;;
46931;SDS011;32670;51.464;11.964;2022-12-08T16:16:04;26.83;;;24.33;;